Campanya meteocatpedra

Dades de l'estació automàtica Alfarràs

?
?
Resum diari 21:00 TU
Dades diàries de l'estació meteorològica
Temperatura mitjana 24.3 °C
Temperatura màxima 32.2 °C 16:05 TU
Temperatura mínima 14.8 °C 4:20 TU
Humitat relativa mitjana 66%
Precipitació acumulada 0.0 mm
Ratxa màxima del vent (2 m) 14.0 km/h - 210º 10:56 TU

El tram horari està expressat en Temps Universal (TU). Cal sumar una hora en horari d'hivern i dues en horari d'estiu per passar a l'hora oficial.

Alfarràs

Metadades estació meteorol´gica
Municipi Alfarràs
Comarca Segrià
Altitud 268 m
Data alta 17.09.1997
Estat actual Operativa
Dades de període
Període
TU
TM
°C
TX
°C
TN
°C
HRM
%
PPT
mm
VVM (2 m)
km/h
DVM (2 m)
graus
VVX (2 m)
km/h
00:00 - 00:30 18.6 19.0 18.2 85 0.0 3.6 176 7.6
00:30 - 01:00 18.1 18.2 18.0 87 0.0 2.5 191 5.4
01:00 - 01:30 17.6 18.0 17.1 89 0.0 1.4 177 5.8
01:30 - 02:00 16.5 17.1 16.0 92 0.0 0.0 189 1.1
02:00 - 02:30 15.6 16.0 15.4 95 0.0 0.0 0 0.0
02:30 - 03:00 15.4 15.6 15.2 97 0.0 0.0 84 1.4
03:00 - 03:30 15.8 16.2 15.3 97 0.0 1.8 307 4.0
03:30 - 04:00 15.9 16.2 15.5 94 0.0 0.4 8 4.3
04:00 - 04:30 15.1 15.4 14.8 95 0.0 0.4 26 2.5
04:30 - 05:00 15.4 15.5 15.1 95 0.0 1.1 337 4.3
05:00 - 05:30 15.9 16.4 15.5 93 0.0 1.1 359 4.7
05:30 - 06:00 16.9 17.6 16.4 88 0.0 1.8 332 5.8
06:00 - 06:30 18.4 19.9 17.6 85 0.0 0.7 39 3.2
06:30 - 07:00 20.7 21.5 20.0 76 0.0 0.7 172 2.9
07:00 - 07:30 22.0 22.5 21.5 71 0.0 1.8 176 4.7
07:30 - 08:00 22.8 23.4 22.5 70 0.0 0.7 189 3.2
08:00 - 08:30 24.3 25.4 23.4 66 0.0 2.2 177 6.5
08:30 - 09:00 25.4 25.9 24.9 62 0.0 2.5 170 10.1
09:00 - 09:30 26.2 27.2 25.4 60 0.0 1.8 173 8.6
09:30 - 10:00 27.0 27.5 26.7 57 0.0 2.5 147 8.3
10:00 - 10:30 27.7 28.9 26.5 54 0.0 0.7 147 8.3
10:30 - 11:00 27.4 28.2 27.0 55 0.0 1.8 210 14.0
11:00 - 11:30 28.0 29.2 27.1 54 0.0 2.2 182 9.0
11:30 - 12:00 28.5 29.2 27.9 53 0.0 2.2 143 9.7
12:00 - 12:30 28.8 29.3 28.4 52 0.0 3.2 154 10.4
12:30 - 13:00 29.6 31.0 28.8 50 0.0 1.8 187 13.7
13:00 - 13:30 30.8 31.3 30.5 47 0.0 2.5 186 10.8
13:30 - 14:00 29.9 30.7 28.9 47 0.0 1.8 206 10.8
14:00 - 14:30 30.3 31.2 28.9 46 0.0 2.9 181 10.4
14:30 - 15:00 30.9 31.5 29.5 44 0.0 3.2 187 13.0
15:00 - 15:30 31.5 31.8 30.9 42 0.0 2.2 208 11.5
15:30 - 16:00 31.6 31.8 31.1 40 0.0 1.4 214 12.6
16:00 - 16:30 31.6 32.2 31.2 39 0.0 1.1 260 8.3
16:30 - 17:00 31.2 31.9 30.7 39 0.0 1.8 249 10.8
17:00 - 17:30 31.0 31.2 30.7 39 0.0 1.4 264 8.6
17:30 - 18:00 30.6 31.1 30.2 39 0.0 2.2 252 9.0
18:00 - 18:30 30.1 30.2 29.7 40 0.0 0.7 247 4.0
18:30 - 19:00 28.8 29.6 27.5 49 0.0 0.4 190 4.3
19:00 - 19:30 25.6 27.5 24.3 65 0.0 0.4 118 2.9
19:30 - 20:00 24.3 24.5 23.9 70 0.0 1.1 108 3.2
20:00 - 20:30 24.0 24.2 23.9 71 0.0 2.5 137 10.1
20:30 - 21:00 24.1 24.3 23.8 69 0.0 4.3 124 9.0
21:00 - 21:30 23.4 23.8 23.1 72 0.0 4.0 134 9.7
21:30 - 22:00 (s/d) (s/d) (s/d) (s/d) (s/d) (s/d) (s/d) (s/d)

Les dades en taronja només han passat un control de qualitat automàtic. Resta pendent la seva validació definitiva.